Time;durP1;ratioP1;P1;durP2;ratioP2;P2;SDS_P1;SDS_P2;PMS_P1;PMS_P2;Temp;Humidity;BMP_temperature;BMP_pressure;BME280_temperature;BME280_humidity;BME280_pressure;Samples;Min_cycle;Max_cycle;Signal;HPM_P1;HPM_P2
2023/05/05 00:00:50;;;;;;;4.57;3.20;;;12.80;99.90;;;;;;4357939;28;10000325;-69
2023/05/05 00:03:17;;;;;;;8.80;3.40;;;12.80;99.90;;;;;;5050646;28;20078;-71
2023/05/05 00:05:42;;;;;;;7.47;3.50;;;12.80;99.90;;;;;;5059981;28;20589;-72
2023/05/05 00:08:08;;;;;;;4.88;3.42;;;12.80;99.90;;;;;;5048743;28;20060;-71
2023/05/05 00:10:34;;;;;;;6.57;3.28;;;12.80;99.90;;;;;;5054677;28;20389;-72
2023/05/05 00:12:59;;;;;;;7.03;3.20;;;12.70;99.90;;;;;;5049110;28;20745;-71
2023/05/05 00:15:26;;;;;;;9.48;3.35;;;12.70;99.90;;;;;;5043770;28;20488;-71
2023/05/05 00:17:51;;;;;;;6.65;3.30;;;12.70;99.90;;;;;;5052926;28;20044;-71
2023/05/05 00:20:17;;;;;;;5.38;3.38;;;12.70;99.90;;;;;;5050531;28;20071;-71
2023/05/05 00:22:43;;;;;;;7.35;3.58;;;12.60;99.90;;;;;;5059516;28;20558;-71
2023/05/05 00:25:08;;;;;;;8.13;3.55;;;12.60;99.90;;;;;;5050714;28;20127;-71
2023/05/05 00:27:34;;;;;;;9.98;3.72;;;12.60;99.90;;;;;;5050671;28;20027;-71
2023/05/05 00:30:00;;;;;;;6.07;3.10;;;12.60;99.90;;;;;;5055650;28;20503;-71
2023/05/05 00:32:26;;;;;;;7.93;3.05;;;12.60;99.90;;;;;;5055432;28;20107;-71
2023/05/05 00:34:52;;;;;;;5.82;3.70;;;12.60;99.90;;;;;;5049715;28;20029;-71
2023/05/05 00:37:18;;;;;;;10.30;3.80;;;12.60;99.90;;;;;;5050492;28;20025;-72
2023/05/05 00:39:43;;;;;;;5.68;3.40;;;12.50;99.90;;;;;;5047082;28;20086;-71
2023/05/05 00:42:09;;;;;;;6.55;3.40;;;12.50;99.90;;;;;;5051588;28;20025;-71
2023/05/05 00:44:38;;;;;;;5.82;3.35;;;12.50;99.90;;;;;;5053698;28;20032;-71
2023/05/05 00:47:04;;;;;;;9.68;3.80;;;12.50;99.90;;;;;;5052507;28;20367;-72
2023/05/05 00:49:30;;;;;;;7.20;3.22;;;12.50;99.90;;;;;;5049112;28;20489;-72
2023/05/05 00:51:56;;;;;;;4.55;2.80;;;12.40;99.90;;;;;;5053209;28;20741;-71
2023/05/05 00:54:22;;;;;;;5.65;2.80;;;12.50;99.90;;;;;;5058012;28;20021;-72
2023/05/05 00:56:49;;;;;;;6.45;3.17;;;12.40;99.90;;;;;;5054236;28;20123;-72
2023/05/05 00:59:16;;;;;;;12.55;3.80;;;12.40;99.90;;;;;;5053508;28;20536;-71
2023/05/05 01:01:42;;;;;;;7.30;3.25;;;12.40;99.90;;;;;;5054065;28;20090;-71
2023/05/05 01:04:07;;;;;;;4.43;3.10;;;12.30;99.90;;;;;;5058028;28;20020;-72
2023/05/05 01:06:51;;;;;;;5.63;3.40;;;12.40;99.90;;;;;;5055968;28;20036;-72
2023/05/05 01:09:33;;;;;;;4.45;3.30;;;12.30;99.90;;;;;;5061416;28;20040;-70
2023/05/05 01:12:31;;;;;;;4.80;3.17;;;12.30;99.90;;;;;;5061272;28;20488;-70
2023/05/05 01:15:07;;;;;;;5.55;3.60;;;12.30;99.90;;;;;;5015551;28;20095;-70
2023/05/05 01:17:41;;;;;;;4.10;3.03;;;12.20;99.90;;;;;;5062063;28;20035;-70
2023/05/05 01:20:11;;;;;;;5.13;3.50;;;12.10;99.90;;;;;;5049319;28;20032;-71
2023/05/05 01:22:41;;;;;;;5.47;3.75;;;12.00;99.90;;;;;;5049675;28;20384;-71
2023/05/05 01:25:34;;;;;;;7.15;4.22;;;11.80;99.90;;;;;;5055084;28;20041;-71
2023/05/05 01:28:12;;;;;;;7.43;4.10;;;11.80;99.90;;;;;;5057078;28;20536;-71
2023/05/05 01:31:05;;;;;;;5.13;3.42;;;11.70;99.90;;;;;;5049182;28;20175;-71
2023/05/05 01:33:44;;;;;;;5.13;3.75;;;11.60;99.90;;;;;;5050016;28;20017;-71
2023/05/05 01:36:21;;;;;;;6.05;4.20;;;11.50;99.90;;;;;;5055233;28;20025;-71
2023/05/05 01:38:51;;;;;;;5.82;4.47;;;11.40;99.90;;;;;;5051591;28;20646;-71
2023/05/05 01:41:23;;;;;;;6.28;4.38;;;11.30;99.90;;;;;;5051681;28;20094;-72
2023/05/05 01:43:51;;;;;;;5.90;4.50;;;11.20;99.90;;;;;;5058643;28;20039;-71
2023/05/05 01:46:20;;;;;;;9.07;4.40;;;11.20;99.90;;;;;;5046728;28;20087;-71
2023/05/05 01:48:47;;;;;;;8.85;5.10;;;11.10;99.90;;;;;;5045761;28;20072;-71
2023/05/05 01:51:16;;;;;;;6.50;4.93;;;11.00;99.90;;;;;;5056996;28;20021;-72
2023/05/05 01:53:43;;;;;;;6.88;5.10;;;11.00;99.90;;;;;;5057001;28;20035;-71
2023/05/05 01:56:10;;;;;;;6.28;5.10;;;10.90;99.90;;;;;;5047131;28;20025;-72
2023/05/05 01:58:37;;;;;;;7.90;4.78;;;10.90;99.90;;;;;;5051740;28;20116;-71
2023/05/05 02:01:03;;;;;;;9.57;5.72;;;10.90;99.90;;;;;;5052346;28;20464;-72
2023/05/05 02:03:32;;;;;;;9.73;5.35;;;10.80;99.90;;;;;;5049980;28;20102;-72
2023/05/05 02:06:00;;;;;;;6.93;4.85;;;10.80;99.90;;;;;;5058143;28;20387;-71
2023/05/05 02:08:27;;;;;;;8.00;5.47;;;10.80;99.90;;;;;;5054766;28;20043;-72
2023/05/05 02:10:54;;;;;;;11.13;5.65;;;10.80;99.90;;;;;;5050164;28;20029;-71
2023/05/05 02:13:22;;;;;;;7.47;5.38;;;10.70;99.90;;;;;;5050695;28;20035;-72
2023/05/05 02:15:49;;;;;;;6.90;5.57;;;10.70;99.90;;;;;;5044987;28;20553;-71
2023/05/05 02:18:15;;;;;;;6.60;5.30;;;10.70;99.90;;;;;;5044930;28;20445;-72
2023/05/05 02:20:41;;;;;;;8.15;5.63;;;10.70;99.90;;;;;;5047093;28;20017;-72
2023/05/05 02:23:07;;;;;;;8.60;5.40;;;10.70;99.90;;;;;;5057100;28;20506;-70
2023/05/05 02:25:38;;;;;;;6.32;4.93;;;10.80;99.90;;;;;;5046949;28;20056;-71
2023/05/05 02:28:11;;;;;;;6.20;4.85;;;10.80;99.90;;;;;;5045408;28;20032;-70
2023/05/05 02:30:37;;;;;;;;;;;10.90;99.90;;;;;;5053835;28;20028;-71
2023/05/05 02:33:10;;;;;;;9.20;4.95;;;11.00;99.90;;;;;;5046823;28;19908;-71
2023/05/05 02:35:40;;;;;;;8.63;4.93;;;11.00;99.90;;;;;;5055309;28;20107;-71
2023/05/05 02:38:16;;;;;;;9.70;5.00;;;11.10;99.90;;;;;;5049458;28;20029;-72
2023/05/05 02:40:43;;;;;;;6.60;4.72;;;11.00;99.90;;;;;;5047138;28;20021;-71
2023/05/05 02:43:13;;;;;;;5.28;4.18;;;11.00;99.90;;;;;;5050232;28;20036;-70
2023/05/05 02:45:39;;;;;;;7.63;5.72;;;11.00;99.90;;;;;;5045244;28;20412;-72
2023/05/05 02:48:05;;;;;;;5.78;5.13;;;11.00;99.90;;;;;;5047897;28;20027;-72
2023/05/05 02:50:31;;;;;;;7.38;5.93;;;11.00;99.90;;;;;;5045044;28;20025;-72
2023/05/05 02:52:58;;;;;;;8.80;5.90;;;10.90;99.90;;;;;;5060411;28;20048;-71
2023/05/05 02:55:28;;;;;;;10.07;6.00;;;11.00;99.90;;;;;;5050041;28;20506;-71
2023/05/05 02:58:05;;;;;;;7.97;6.07;;;10.90;99.90;;;;;;5046092;28;20489;-71
2023/05/05 03:00:35;;;;;;;8.82;5.85;;;11.00;99.90;;;;;;5047981;28;20029;-71
2023/05/05 03:03:32;;;;;;;10.15;6.03;;;10.90;99.90;;;;;;5057094;28;20107;-71
2023/05/05 03:06:28;;;;;;;8.05;5.88;;;10.90;99.90;;;;;;5056400;28;20017;-72
2023/05/05 03:08:57;;;;;;;9.63;5.70;;;10.80;99.90;;;;;;5035988;28;20037;-72
2023/05/05 03:11:30;;;;;;;10.35;6.53;;;10.80;99.90;;;;;;5055855;28;20217;-71
2023/05/05 03:14:08;;;;;;;11.15;6.72;;;10.70;99.90;;;;;;5057816;28;20077;-72
2023/05/05 03:16:40;;;;;;;8.20;6.47;;;10.70;99.90;;;;;;5051783;28;20040;-72
2023/05/05 03:19:08;;;;;;;7.90;6.15;;;10.70;99.90;;;;;;5053603;28;20420;-72
2023/05/05 03:21:33;;;;;;;9.18;6.03;;;10.60;99.90;;;;;;5047925;28;20032;-72
2023/05/05 03:23:59;;;;;;;8.15;6.40;;;10.60;99.90;;;;;;5053606;28;20556;-72
2023/05/05 03:26:25;;;;;;;6.97;6.20;;;10.50;99.90;;;;;;5053103;28;20043;-72
2023/05/05 03:28:51;;;;;;;9.40;6.05;;;10.40;99.90;;;;;;5053679;28;20100;-72
2023/05/05 03:31:17;;;;;;;7.20;5.78;;;10.30;99.90;;;;;;5054442;28;20509;-71
2023/05/05 03:33:43;;;;;;;8.80;5.38;;;10.20;99.90;;;;;;5051044;28;20025;-72
2023/05/05 03:36:09;;;;;;;9.07;5.93;;;10.10;99.90;;;;;;5055017;28;20361;-72
2023/05/05 03:38:35;;;;;;;8.95;5.47;;;10.10;99.90;;;;;;5052566;28;20082;-71
2023/05/05 03:41:02;;;;;;;8.20;6.13;;;10.10;99.90;;;;;;5039834;28;20062;-71
2023/05/05 03:43:28;;;;;;;7.88;5.72;;;10.10;99.90;;;;;;5041778;28;20044;-71
2023/05/05 03:45:53;;;;;;;5.88;5.05;;;10.10;99.90;;;;;;5043591;28;20036;-71
2023/05/05 03:48:19;;;;;;;7.70;5.50;;;10.10;99.90;;;;;;5057710;28;20106;-71
2023/05/05 03:50:45;;;;;;;6.97;5.50;;;10.00;99.90;;;;;;5052573;28;20051;-71
2023/05/05 03:53:10;;;;;;;5.97;5.13;;;10.00;99.90;;;;;;5047140;28;20555;-71
2023/05/05 03:55:36;;;;;;;8.98;5.25;;;10.00;99.90;;;;;;5056972;28;20082;-71
2023/05/05 03:58:01;;;;;;;7.80;5.20;;;10.00;99.90;;;;;;5063158;28;20020;-71
2023/05/05 04:00:27;;;;;;;5.20;4.70;;;10.00;99.90;;;;;;5050363;28;20028;-71
2023/05/05 04:02:53;;;;;;;5.25;4.70;;;10.00;99.90;;;;;;5053283;28;20115;-70
2023/05/05 04:05:18;;;;;;;7.00;5.20;;;10.00;99.90;;;;;;5053989;28;20055;-70
2023/05/05 04:07:44;;;;;;;6.97;5.43;;;10.00;99.90;;;;;;5055854;28;20025;-70
2023/05/05 04:10:10;;;;;;;7.13;4.90;;;10.00;99.90;;;;;;5051866;28;20029;-70
2023/05/05 04:12:36;;;;;;;8.27;5.30;;;10.00;99.90;;;;;;5050517;28;20453;-70
2023/05/05 04:15:01;;;;;;;7.53;5.32;;;10.00;99.90;;;;;;5062229;28;20119;-71
2023/05/05 04:17:27;;;;;;;8.18;5.63;;;10.00;99.90;;;;;;5054047;28;20025;-70
2023/05/05 04:19:53;;;;;;;5.63;4.95;;;10.00;99.90;;;;;;5056963;28;20040;-71
2023/05/05 04:22:18;;;;;;;6.32;5.50;;;10.10;99.90;;;;;;5051741;28;20086;-70
2023/05/05 04:24:44;;;;;;;8.25;6.22;;;10.10;99.90;;;;;;5052278;28;20119;-71
2023/05/05 04:27:09;;;;;;;7.88;5.97;;;10.20;99.90;;;;;;5048694;28;20040;-71
2023/05/05 04:29:35;;;;;;;10.52;6.20;;;10.20;99.90;;;;;;5067437;28;20642;-70
2023/05/05 04:32:01;;;;;;;8.90;6.22;;;10.30;99.90;;;;;;5052545;28;20021;-70
2023/05/05 04:34:26;;;;;;;9.65;6.80;;;10.30;99.90;;;;;;5049865;28;20028;-71
2023/05/05 04:36:52;;;;;;;9.05;6.70;;;10.30;99.90;;;;;;5044375;28;20028;-71
2023/05/05 04:39:17;;;;;;;8.40;6.22;;;10.30;99.90;;;;;;5055376;28;20027;-70
2023/05/05 04:41:43;;;;;;;9.85;6.90;;;10.40;99.90;;;;;;5056559;28;20024;-71
2023/05/05 04:44:09;;;;;;;10.55;6.45;;;10.40;99.90;;;;;;5053337;28;20037;-71
2023/05/05 04:46:34;;;;;;;7.60;6.45;;;10.40;99.90;;;;;;5042788;28;20029;-71
2023/05/05 04:49:02;;;;;;;11.18;6.55;;;10.40;99.90;;;;;;5048996;28;20021;-70
2023/05/05 04:51:27;;;;;;;8.85;6.80;;;10.50;99.90;;;;;;5049505;28;20036;-70
2023/05/05 04:53:53;;;;;;;8.07;6.50;;;10.50;99.90;;;;;;5048222;28;20029;-71
2023/05/05 04:56:18;;;;;;;11.15;6.85;;;10.60;99.90;;;;;;5047038;28;20048;-70
2023/05/05 04:58:44;;;;;;;7.50;6.00;;;10.60;99.90;;;;;;5056834;28;20048;-70
2023/05/05 05:01:09;;;;;;;12.65;6.93;;;10.70;99.90;;;;;;5060876;28;20476;-70
2023/05/05 05:03:35;;;;;;;9.70;6.40;;;10.80;99.90;;;;;;5051638;28;20033;-70
2023/05/05 05:06:01;;;;;;;8.77;6.75;;;10.90;99.90;;;;;;5050657;28;20033;-72
2023/05/05 05:08:27;;;;;;;8.85;6.10;;;10.90;99.90;;;;;;5051009;28;20097;-71
2023/05/05 05:10:53;;;;;;;8.05;5.88;;;11.00;99.90;;;;;;5049940;28;20023;-71
2023/05/05 05:13:18;;;;;;;10.27;6.60;;;11.10;99.90;;;;;;5061163;28;20100;-72
2023/05/05 05:15:44;;;;;;;11.40;6.20;;;11.20;99.90;;;;;;5057724;28;20550;-72
2023/05/05 05:18:10;;;;;;;12.70;6.28;;;11.30;99.90;;;;;;5047820;28;20055;-72
2023/05/05 05:20:36;;;;;;;11.70;6.68;;;11.30;99.90;;;;;;5043318;28;20493;-71
2023/05/05 05:23:01;;;;;;;7.07;5.85;;;11.40;99.90;;;;;;5051225;28;20025;-71
2023/05/05 05:25:28;;;;;;;11.13;6.00;;;11.50;99.90;;;;;;5053456;28;20094;-72
2023/05/05 05:27:53;;;;;;;9.43;6.60;;;11.50;99.90;;;;;;5048518;28;20021;-72
2023/05/05 05:30:19;;;;;;;9.18;6.40;;;11.40;99.90;;;;;;5047756;28;20032;-72
2023/05/05 05:32:44;;;;;;;8.65;6.63;;;11.50;99.90;;;;;;5054580;28;20032;-72
2023/05/05 05:35:10;;;;;;;11.68;7.53;;;11.50;99.90;;;;;;5049608;28;20021;-72
2023/05/05 05:37:36;;;;;;;11.32;7.10;;;11.40;99.90;;;;;;5045913;28;20033;-73
2023/05/05 05:40:03;;;;;;;15.02;7.53;;;11.50;99.90;;;;;;5064564;28;20059;-72
2023/05/05 05:42:29;;;;;;;13.27;7.20;;;11.50;99.90;;;;;;5057830;28;20403;-72
2023/05/05 05:44:57;;;;;;;14.07;6.90;;;11.60;99.90;;;;;;5068772;28;20111;-72
2023/05/05 05:47:23;;;;;;;10.10;6.80;;;11.60;99.90;;;;;;5049904;28;20258;-73
2023/05/05 05:49:48;;;;;;;8.00;6.10;;;11.70;99.90;;;;;;5049892;28;20033;-72
2023/05/05 05:52:14;;;;;;;8.70;5.53;;;11.80;99.90;;;;;;5055027;28;20033;-72
2023/05/05 05:54:40;;;;;;;9.27;6.20;;;11.90;99.90;;;;;;5051346;28;20124;-73
2023/05/05 05:57:05;;;;;;;7.80;5.93;;;12.00;99.90;;;;;;5060681;28;20035;-72
2023/05/05 05:59:31;;;;;;;9.23;5.50;;;12.00;99.90;;;;;;5051375;28;20049;-73
2023/05/05 06:01:57;;;;;;;7.45;5.50;;;12.10;99.90;;;;;;5053718;28;20462;-72
2023/05/05 06:04:23;;;;;;;8.68;5.80;;;12.20;99.90;;;;;;5050595;28;20048;-73
2023/05/05 06:06:49;;;;;;;12.35;5.05;;;12.40;99.90;;;;;;5058231;28;20488;-72
2023/05/05 06:14:25;;;;;;;8.07;5.28;;;12.90;99.90;;;;;;4365102;23;10000438;-71
2023/05/05 06:16:51;;;;;;;11.13;5.53;;;13.00;99.90;;;;;;4970179;28;20038;-71
2023/05/05 06:19:17;;;;;;;7.72;4.60;;;13.10;99.90;;;;;;4972483;28;20109;-70
2023/05/05 06:21:43;;;;;;;6.93;5.00;;;13.20;99.90;;;;;;4976494;28;20022;-71
2023/05/05 06:24:09;;;;;;;9.40;5.25;;;13.30;99.90;;;;;;4977362;28;20449;-71
2023/05/05 06:26:35;;;;;;;8.85;5.03;;;13.40;99.90;;;;;;4977904;28;20053;-71
2023/05/05 06:29:00;;;;;;;6.50;4.82;;;13.70;99.90;;;;;;4982851;28;20030;-71
2023/05/05 06:31:26;;;;;;;10.13;5.60;;;13.80;99.90;;;;;;4983346;28;20454;-71
2023/05/05 06:33:52;;;;;;;8.05;5.55;;;;;;;;;;4981263;28;20046;-71
2023/05/05 06:36:18;;;;;;;10.52;6.28;;;;;;;;;;4978397;28;20030;-71
2023/05/05 06:38:43;;;;;;;11.20;6.10;;;14.30;99.90;;;;;;4970143;28;20541;-71
2023/05/05 06:41:09;;;;;;;12.07;6.22;;;14.30;99.90;;;;;;4979199;28;20034;-71
2023/05/05 06:43:35;;;;;;;10.30;5.85;;;14.40;99.90;;;;;;4979841;28;20432;-72
2023/05/05 06:46:00;;;;;;;12.93;6.15;;;14.50;99.90;;;;;;4980898;28;20080;-72
2023/05/05 06:48:26;;;;;;;10.95;6.50;;;14.60;99.90;;;;;;4970961;28;20486;-72
2023/05/05 06:50:52;;;;;;;15.32;6.10;;;14.60;99.90;;;;;;4981183;28;20057;-72
2023/05/05 06:53:17;;;;;;;11.55;5.78;;;14.70;99.90;;;;;;4982216;28;20534;-72
2023/05/05 06:55:46;;;;;;;12.98;6.35;;;14.80;99.90;;;;;;4983811;28;20379;-72
2023/05/05 06:58:11;;;;;;;16.38;6.40;;;14.80;99.90;;;;;;4970142;28;20377;-72
2023/05/05 07:00:38;;;;;;;13.60;6.07;;;14.90;99.90;;;;;;4984128;28;20030;-72
2023/05/05 07:03:04;;;;;;;13.75;7.82;;;15.10;99.90;;;;;;4983683;28;20389;-72
2023/05/05 07:05:30;;;;;;;12.95;8.65;;;15.10;99.90;;;;;;4984881;28;20030;-72
2023/05/05 07:07:56;;;;;;;12.20;6.38;;;15.20;99.90;;;;;;4987147;28;20018;-72
2023/05/05 07:10:23;;;;;;;10.48;5.55;;;15.40;99.90;;;;;;4983438;28;20497;-72
2023/05/05 07:12:50;;;;;;;9.43;5.70;;;15.50;99.90;;;;;;4964419;28;20070;-72
2023/05/05 07:15:16;;;;;;;6.82;5.50;;;15.60;99.90;;;;;;4955678;28;20034;-71
2023/05/05 07:17:42;;;;;;;7.97;5.15;;;15.70;99.90;;;;;;4978673;28;20019;-72
2023/05/05 07:20:09;;;;;;;11.35;5.68;;;15.90;99.90;;;;;;4972570;28;20042;-72
2023/05/05 07:22:35;;;;;;;10.80;5.53;;;16.00;99.90;;;;;;4978272;28;20030;-73
2023/05/05 07:25:01;;;;;;;15.73;5.38;;;15.80;99.90;;;;;;4981974;28;20044;-72
2023/05/05 07:27:27;;;;;;;12.20;6.00;;;15.80;99.90;;;;;;4977040;28;20461;-72
2023/05/05 07:29:53;;;;;;;15.30;5.93;;;15.90;99.90;;;;;;4979070;28;20134;-72
2023/05/05 07:32:18;;;;;;;12.00;5.70;;;16.10;99.90;;;;;;4983668;28;20062;-70
2023/05/05 07:34:44;;;;;;;7.15;5.32;;;16.40;99.90;;;;;;4976417;28;20026;-72
2023/05/05 07:37:10;;;;;;;11.27;5.53;;;16.70;99.90;;;;;;4969607;28;23077;-71
2023/05/05 07:39:36;;;;;;;12.90;4.85;;;;;;;;;;4981225;28;20113;-71
2023/05/05 07:42:02;;;;;;;9.60;4.65;;;17.40;99.90;;;;;;4982853;28;20045;-71
2023/05/05 07:44:28;;;;;;;6.03;4.50;;;;;;;;;;4973918;28;20438;-71
2023/05/05 07:46:54;;;;;;;12.38;5.60;;;;;;;;;;4980836;28;20144;-71
2023/05/05 07:49:21;;;;;;;8.43;5.28;;;;;;;;;;4979981;28;20232;-71
2023/05/05 07:51:49;;;;;;;9.75;5.13;;;;;;;;;;4976307;28;20043;-70
2023/05/05 07:54:15;;;;;;;14.07;5.20;;;;;;;;;;4981914;28;20104;-71
2023/05/05 07:56:41;;;;;;;10.13;5.65;;;;;;;;;;4982170;28;20478;-71
2023/05/05 07:59:07;;;;;;;9.23;5.43;;;;;;;;;;4988436;28;20034;-72
2023/05/05 08:01:33;;;;;;;9.48;5.28;;;;;;;;;;4984638;28;20035;-72
2023/05/05 08:03:59;;;;;;;11.60;5.85;;;;;;;;;;4981837;28;20030;-71
2023/05/05 08:06:27;;;;;;;15.50;6.18;;;;;;;;;;4985394;28;20034;-71
2023/05/05 08:08:53;;;;;;;9.05;5.45;;;;;;;;;;4986932;28;20121;-72
2023/05/05 08:11:20;;;;;;;10.18;5.85;;;;;;;;;;4983346;28;20023;-72
2023/05/05 08:13:46;;;;;;;15.85;5.82;;;;;;;;;;4986739;28;20058;-71
2023/05/05 08:16:12;;;;;;;9.82;5.88;;;;;;;;;;4970294;28;20054;-70
2023/05/05 08:18:38;;;;;;;14.32;6.28;;;;;;;;;;4971645;28;20070;-71
2023/05/05 08:21:08;;;;;;;14.13;6.22;;;;;;;;;;4970599;28;20034;-72
2023/05/05 08:23:34;;;;;;;9.07;5.78;;;;;;;;;;4987646;28;20466;-71
2023/05/05 08:26:01;;;;;;;13.48;6.05;;;;;;;;;;4979249;28;20531;-71
2023/05/05 08:28:27;;;;;;;11.90;5.95;;;;;;;;;;4982532;28;20038;-72
2023/05/05 08:30:53;;;;;;;8.20;5.72;;;;;;;;;;4984195;28;20034;-72
2023/05/05 08:33:19;;;;;;;12.05;6.28;;;;;;;;;;4982667;28;20660;-71
2023/05/05 08:35:45;;;;;;;11.05;6.00;;;;;;;;;;4978980;28;20038;-72
2023/05/05 08:38:11;;;;;;;11.75;5.70;;;;;;;;;;4971255;28;20022;-72
2023/05/05 08:40:39;;;;;;;12.35;5.72;;;;;;;;;;4984446;28;20042;-71
2023/05/05 08:43:05;;;;;;;8.73;5.47;;;;;;;;;;4984699;28;20045;-71
2023/05/05 08:45:32;;;;;;;8.50;5.85;;;;;;;;;;4983119;28;20493;-71
2023/05/05 08:48:00;;;;;;;14.13;6.45;;;;;;;;;;4984624;28;20381;-71
2023/05/05 08:50:27;;;;;;;7.88;5.57;;;;;;;;;;4982855;28;20113;-71
2023/05/05 08:53:10;;;;;;;7.90;5.85;;;;;;;;;;4978928;28;20351;-71
2023/05/05 08:55:50;;;;;;;12.73;6.80;;;;;;;;;;4981885;28;20033;-71
2023/05/05 08:58:17;;;;;;;11.70;6.30;;;;;;;;;;4985327;28;20113;-71
2023/05/05 09:00:44;;;;;;;8.30;6.47;;;;;;;;;;4980282;28;20715;-71
2023/05/05 09:03:11;;;;;;;10.88;5.85;;;;;;;;;;4970586;28;20497;-71
2023/05/05 09:05:37;;;;;;;9.48;6.15;;;;;;;;;;4982944;28;20033;-71
2023/05/05 09:08:05;;;;;;;8.48;5.55;;;;;;;;;;4983169;28;20030;-72
2023/05/05 09:10:32;;;;;;;11.25;6.10;;;;;;;;;;4984196;28;20045;-71
2023/05/05 09:12:58;;;;;;;9.57;5.43;;;;;;;;;;4971179;28;20409;-72
2023/05/05 09:15:27;;;;;;;7.68;5.45;;;;;;;;;;4977057;28;20235;-72
2023/05/05 09:17:55;;;;;;;7.95;5.63;;;;;;;;;;4985196;28;20030;-71
2023/05/05 09:20:21;;;;;;;14.77;5.80;;;;;;;;;;4976365;28;20093;-70
2023/05/05 09:22:47;;;;;;;8.30;5.13;;;;;;;;;;4972535;28;20089;-71
2023/05/05 09:25:16;;;;;;;9.25;5.07;;;;;;;;;;4974341;28;20057;-71
2023/05/05 09:27:47;;;;;;;7.47;4.97;;;19.40;99.90;;;;;;4970212;28;21967;-70
2023/05/05 09:30:26;;;;;;;8.38;5.10;;;19.60;99.90;;;;;;4983471;28;20118;-70
2023/05/05 09:32:53;;;;;;;12.77;5.82;;;19.90;99.90;;;;;;4976648;28;20026;-68
2023/05/05 09:35:20;;;;;;;7.53;5.25;;;20.10;99.90;;;;;;4975459;28;20395;-68
2023/05/05 09:37:46;;;;;;;6.63;4.90;;;20.20;99.90;;;;;;4977220;28;20031;-68
2023/05/05 09:40:17;;;;;;;10.15;5.18;;;20.40;99.90;;;;;;4981251;28;20033;-68
2023/05/05 09:42:46;;;;;;;6.85;5.20;;;20.60;99.90;;;;;;4987473;28;20034;-69
2023/05/05 09:45:17;;;;;;;10.52;5.55;;;20.80;99.90;;;;;;4976867;28;20502;-68
2023/05/05 09:47:44;;;;;;;8.52;5.40;;;21.00;99.90;;;;;;4976897;28;20035;-69
2023/05/05 09:50:14;;;;;;;5.40;4.88;;;21.20;98.80;;;;;;4984365;28;20044;-69
2023/05/05 09:52:40;;;;;;;9.07;5.72;;;21.30;98.40;;;;;;4973580;28;20401;-70
2023/05/05 09:55:16;;;;;;;8.32;4.93;;;21.40;98.10;;;;;;4970702;28;20092;-70
2023/05/05 09:57:42;;;;;;;10.98;5.80;;;21.50;97.50;;;;;;4974225;28;20030;-70
2023/05/05 10:00:09;;;;;;;10.77;6.78;;;21.70;97.30;;;;;;4983767;28;20097;-70
2023/05/05 10:02:36;;;;;;;9.35;6.65;;;21.80;96.50;;;;;;4981016;28;20058;-70
2023/05/05 10:05:10;;;;;;;8.50;6.07;;;21.90;95.90;;;;;;4976189;28;20414;-70
2023/05/05 10:07:36;;;;;;;9.60;6.82;;;22.00;95.50;;;;;;4980769;28;20387;-70
2023/05/05 10:10:16;;;;;;;10.95;6.53;;;22.10;96.20;;;;;;4977216;28;20777;-69
2023/05/05 10:12:44;;;;;;;10.43;6.40;;;22.00;95.30;;;;;;4977245;28;20499;-70
2023/05/05 10:15:11;;;;;;;12.55;6.88;;;22.10;95.10;;;;;;4978002;28;20053;-70
2023/05/05 10:17:45;;;;;;;9.20;5.88;;;22.10;94.80;;;;;;4980967;28;20393;-75
2023/05/05 10:20:12;;;;;;;6.60;5.38;;;22.20;94.80;;;;;;4981752;28;20504;-70
2023/05/05 10:22:42;;;;;;;9.18;5.90;;;22.30;95.40;;;;;;4982918;28;20033;-70
2023/05/05 10:25:09;;;;;;;8.65;6.65;;;22.40;95.00;;;;;;4980089;28;20062;-70
2023/05/05 10:27:44;;;;;;;9.00;5.90;;;22.10;94.90;;;;;;4976635;28;20028;-70
2023/05/05 10:30:23;;;;;;;13.60;7.10;;;22.00;95.50;;;;;;4280686;28;10001374;-71
2023/05/05 10:33:04;;;;;;;10.15;7.55;;;21.90;95.90;;;;;;4966098;28;20050;-71
2023/05/05 10:35:32;;;;;;;10.02;7.20;;;21.90;96.60;;;;;;4970110;28;20537;-70
2023/05/05 10:37:59;;;;;;;12.95;7.00;;;22.00;96.80;;;;;;4964794;28;20105;-71
2023/05/05 10:40:25;;;;;;;8.63;6.53;;;22.10;96.90;;;;;;4972545;28;20187;-71
2023/05/05 10:42:54;;;;;;;13.77;7.50;;;22.10;97.00;;;;;;4972907;28;20278;-70
2023/05/05 10:45:20;;;;;;;11.32;8.00;;;22.20;96.60;;;;;;4976210;28;20141;-70
2023/05/05 10:47:46;;;;;;;8.23;7.22;;;22.10;96.40;;;;;;4973451;28;20517;-71
2023/05/05 10:50:15;;;;;;;12.32;7.72;;;22.20;96.50;;;;;;4973432;28;20104;-70
2023/05/05 10:53:14;;;;;;;8.35;6.82;;;22.20;96.00;;;;;;4973444;28;20061;-71
2023/05/05 10:55:53;;;;;;;9.15;6.13;;;22.50;96.40;;;;;;4975214;28;20038;-71
2023/05/05 10:58:40;;;;;;;11.23;8.00;;;22.70;95.40;;;;;;4966197;28;20034;-71
2023/05/05 11:01:08;;;;;;;9.35;7.28;;;22.80;95.20;;;;;;4974375;28;20668;-71
2023/05/05 11:03:34;;;;;;;10.05;7.72;;;22.80;95.20;;;;;;4980003;28;20042;-71
2023/05/05 11:06:03;;;;;;;9.23;7.45;;;22.80;94.90;;;;;;4978275;28;20077;-71
2023/05/05 11:08:30;;;;;;;14.80;7.00;;;22.80;95.10;;;;;;4979207;28;20035;-71
2023/05/05 11:10:56;;;;;;;18.10;7.63;;;22.80;96.00;;;;;;4976270;28;20579;-72
2023/05/05 11:13:22;;;;;;;18.73;7.50;;;23.00;95.20;;;;;;4977923;28;20038;-70
2023/05/05 11:15:50;;;;;;;11.75;7.38;;;23.00;94.30;;;;;;4978561;28;20088;-71
2023/05/05 11:18:44;;;;;;;8.70;7.30;;;23.00;94.60;;;;;;4967778;28;20033;-71
2023/05/05 11:21:15;;;;;;;10.48;7.55;;;23.10;93.80;;;;;;4973174;28;20023;-71
2023/05/05 11:23:45;;;;;;;10.40;7.03;;;;;;;;;;4981349;28;20125;-70
2023/05/05 11:26:12;;;;;;;10.88;7.32;;;23.50;93.00;;;;;;4970607;28;20499;-71
2023/05/05 11:28:56;;;;;;;12.05;7.43;;;23.70;93.10;;;;;;4979499;28;20145;-71
2023/05/05 11:31:23;;;;;;;9.45;7.93;;;23.60;93.10;;;;;;4976145;28;20036;-71
2023/05/05 11:33:49;;;;;;;13.80;8.07;;;23.50;93.10;;;;;;4979978;28;20046;-70
2023/05/05 11:36:16;;;;;;;11.27;8.68;;;23.50;93.30;;;;;;4975426;28;20038;-71
2023/05/05 11:38:52;;;;;;;10.57;7.20;;;23.50;92.70;;;;;;4972544;28;20473;-70
2023/05/05 11:41:21;;;;;;;11.30;7.20;;;23.50;93.30;;;;;;4980529;28;20026;-69
2023/05/05 11:43:47;;;;;;;10.18;8.13;;;23.30;93.30;;;;;;4980270;28;20506;-69
2023/05/05 11:46:15;;;;;;;12.57;8.77;;;23.10;93.50;;;;;;4980666;28;20042;-69
2023/05/05 11:48:48;;;;;;;10.60;8.07;;;22.80;94.30;;;;;;4978281;28;20525;-69
2023/05/05 11:51:16;;;;;;;14.13;8.13;;;22.60;94.70;;;;;;4978764;28;20392;-69
2023/05/05 11:53:47;;;;;;;11.18;8.00;;;22.40;94.90;;;;;;4979666;28;20457;-68
2023/05/05 11:56:23;;;;;;;8.95;8.05;;;22.30;95.50;;;;;;4976856;28;20083;-69
2023/05/05 11:59:10;;;;;;;11.73;8.10;;;22.10;95.90;;;;;;4975450;28;20026;-69
2023/05/05 12:01:40;;;;;;;12.13;8.00;;;21.90;97.10;;;;;;4976181;28;20085;-68
2023/05/05 12:04:10;;;;;;;15.25;7.95;;;21.70;97.40;;;;;;4981051;28;20081;-68
2023/05/05 12:06:37;;;;;;;12.57;9.52;;;21.50;97.40;;;;;;4975440;28;20030;-68
2023/05/05 12:09:03;;;;;;;16.13;9.23;;;21.30;97.80;;;;;;4979734;28;20027;-68
2023/05/05 12:11:30;;;;;;;11.75;9.10;;;21.10;98.30;;;;;;4976310;28;20045;-68
2023/05/05 12:14:10;;;;;;;16.13;10.13;;;21.00;98.30;;;;;;4976913;28;20062;-69
2023/05/05 12:16:37;;;;;;;14.43;9.65;;;20.90;99.10;;;;;;4976106;28;20622;-68
2023/05/05 12:19:07;;;;;;;12.73;9.38;;;20.80;99.60;;;;;;4980326;28;20041;-69
2023/05/05 12:21:34;;;;;;;15.23;11.43;;;20.70;99.90;;;;;;4983005;28;20785;-68
2023/05/05 12:24:00;;;;;;;17.33;12.05;;;20.50;99.90;;;;;;4981588;28;20204;-68
2023/05/05 12:26:29;;;;;;;14.80;12.60;;;20.10;99.90;;;;;;4981767;28;20072;-68
2023/05/05 12:28:56;;;;;;;22.58;13.77;;;19.90;99.90;;;;;;4982962;28;20488;-68
2023/05/05 12:31:32;;;;;;;18.85;13.70;;;19.50;99.90;;;;;;4985069;28;20023;-67
2023/05/05 12:33:58;;;;;;;15.68;13.15;;;19.20;99.90;;;;;;4980229;28;20022;-66
2023/05/05 12:36:24;;;;;;;19.52;15.00;;;;;;;;;;4977569;28;20386;-66
2023/05/05 12:38:50;;;;;;;21.55;15.23;;;18.60;99.90;;;;;;4980026;28;20461;-66
2023/05/05 12:41:20;;;;;;;21.98;14.77;;;18.40;99.90;;;;;;4983512;28;20405;-66
2023/05/05 12:43:46;;;;;;;22.75;15.57;;;18.20;99.90;;;;;;4979780;28;20038;-66
2023/05/05 12:46:13;;;;;;;23.27;16.05;;;18.10;99.90;;;;;;4980725;28;20038;-67
2023/05/05 12:48:42;;;;;;;26.58;13.35;;;17.90;99.90;;;;;;4980219;28;20014;-67
2023/05/05 12:51:19;;;;;;;24.23;14.13;;;17.70;99.90;;;;;;4979465;28;20026;-67
2023/05/05 12:53:47;;;;;;;29.52;13.63;;;17.50;99.90;;;;;;4983992;28;20104;-68
2023/05/05 12:56:48;;;;;;;24.48;14.68;;;17.40;99.90;;;;;;4978977;28;20022;-67
2023/05/05 12:59:20;;;;;;;23.25;14.35;;;17.30;99.90;;;;;;4920673;29;20067;-67
2023/05/05 13:01:51;;;;;;;19.05;12.40;;;17.20;99.90;;;;;;4952974;28;20046;-68
2023/05/05 13:04:18;;;;;;;19.30;11.55;;;17.20;99.90;;;;;;4984312;28;20155;-67
2023/05/05 13:06:46;;;;;;;14.95;10.57;;;17.10;99.90;;;;;;4979832;28;20041;-67
2023/05/05 13:09:29;;;;;;;15.48;11.20;;;17.10;99.90;;;;;;4982294;28;20546;-67